Time;durP1;ratioP1;P1;durP2;ratioP2;P2;SDS_P1;SDS_P2;PMS_P1;PMS_P2;Temp;Humidity;BMP_temperature;BMP_pressure;BME280_temperature;BME280_humidity;BME280_pressure;Samples;Min_cycle;Max_cycle;Signal;HPM_P1;HPM_P2
2022/12/02 00:01:21;;;;;;;42.22;27.90;;;153.60;2252.80;;;;;;4972977;28;20034;-61
2022/12/02 00:03:48;;;;;;;51.30;32.38;;;128.80;2252.80;;;;;;4973190;28;20146;-60
2022/12/02 00:06:29;;;;;;;42.88;26.95;;;128.80;2252.80;;;;;;4972955;28;20059;-60
2022/12/02 00:09:23;;;;;;;39.80;25.65;;;128.70;2252.80;;;;;;4972626;28;20047;-59
2022/12/02 00:11:49;;;;;;;43.08;25.08;;;128.70;2252.80;;;;;;4969838;28;20035;-59
2022/12/02 00:14:21;;;;;;;44.63;27.55;;;128.80;2252.80;;;;;;4972727;28;20027;-60
2022/12/02 00:16:47;;;;;;;47.70;29.25;;;128.80;2252.80;;;;;;4972975;28;20548;-68
2022/12/02 00:19:13;;;;;;;44.17;27.17;;;128.80;2252.80;;;;;;4972820;28;20022;-60
2022/12/02 00:21:39;;;;;;;38.00;25.23;;;128.80;2252.80;;;;;;4972666;28;20097;-60
2022/12/02 00:24:05;;;;;;;43.83;28.38;;;128.80;2252.80;;;;;;4972441;28;20570;-60
2022/12/02 00:26:30;;;;;;;43.83;27.50;;;128.80;2252.80;;;;;;4972576;28;20030;-59
2022/12/02 00:28:56;;;;;;;36.55;23.67;;;128.90;2252.80;;;;;;4972718;28;20528;-58
2022/12/02 00:31:22;;;;;;;41.10;25.75;;;128.90;2252.80;;;;;;4972330;28;20023;-60
2022/12/02 00:33:47;;;;;;;38.45;24.52;;;128.90;2252.80;;;;;;4972609;28;20022;-59
2022/12/02 00:36:13;;;;;;;39.22;23.95;;;153.60;2252.80;;;;;;4972386;28;20038;-60
2022/12/02 00:38:39;;;;;;;42.58;25.08;;;128.90;2252.80;;;;;;4972395;28;20109;-59
2022/12/02 00:41:04;;;;;;;34.65;21.60;;;128.90;2252.80;;;;;;4972062;28;20129;-59
2022/12/02 00:46:33;;;;;;;34.60;23.25;;;128.90;2252.80;;;;;;4972545;28;20043;-60
2022/12/02 00:49:04;;;;;;;36.67;24.77;;;128.90;2252.80;;;;;;4972285;28;20405;-60
2022/12/02 00:51:30;;;;;;;45.83;26.73;;;128.80;2252.80;;;;;;4972164;28;20385;-60
2022/12/02 00:53:56;;;;;;;39.90;25.13;;;128.80;2252.80;;;;;;4972147;28;20030;-60
2022/12/02 00:56:21;;;;;;;33.45;21.38;;;128.90;2252.80;;;;;;4981673;28;20519;-60
2022/12/02 00:58:47;;;;;;;34.03;21.02;;;128.90;2252.80;;;;;;4991620;28;20030;-59
2022/12/02 01:01:13;;;;;;;33.13;22.52;;;128.80;2252.80;;;;;;4991374;28;20042;-61
2022/12/02 01:03:39;;;;;;;37.15;23.90;;;128.80;2252.80;;;;;;4991357;28;20030;-61
2022/12/02 01:06:05;;;;;;;36.35;23.90;;;128.90;2252.80;;;;;;4991042;28;20046;-61
2022/12/02 01:08:31;;;;;;;39.55;23.50;;;153.60;2252.80;;;;;;4991175;28;20035;-66
2022/12/02 01:10:57;;;;;;;37.17;22.38;;;153.60;2252.80;;;;;;4990547;28;20052;-61
2022/12/02 01:13:25;;;;;;;41.53;23.38;;;128.80;2252.80;;;;;;4991203;28;20026;-60
2022/12/02 01:15:50;;;;;;;46.60;27.50;;;128.80;2252.80;;;;;;4991289;28;20089;-60
2022/12/02 01:18:16;;;;;;;36.13;22.67;;;128.90;2252.80;;;;;;4991072;28;20074;-59
2022/12/02 01:20:42;;;;;;;36.30;22.90;;;128.90;2252.80;;;;;;4990975;28;20069;-63
2022/12/02 01:23:08;;;;;;;40.75;23.38;;;153.70;2252.80;;;;;;4990854;28;20033;-63
2022/12/02 01:25:34;;;;;;;27.75;18.55;;;153.70;2252.80;;;;;;4991040;28;20480;-59
2022/12/02 01:28:00;;;;;;;24.20;16.02;;;153.60;2252.80;;;;;;4991233;28;20026;-65
2022/12/02 01:30:25;;;;;;;34.65;21.92;;;153.60;2252.80;;;;;;4990814;28;20396;-61
2022/12/02 01:32:51;;;;;;;35.47;23.73;;;128.90;2252.80;;;;;;4991050;28;20034;-65
2022/12/02 01:35:19;;;;;;;34.17;22.35;;;128.80;2252.80;;;;;;4990779;28;20358;-65
2022/12/02 01:37:45;;;;;;;41.97;25.05;;;128.70;2252.80;;;;;;4990642;28;20101;-61
2022/12/02 01:40:11;;;;;;;46.63;26.88;;;128.80;2252.80;;;;;;4990716;28;20030;-60
2022/12/02 01:42:38;;;;;;;65.68;34.63;;;128.70;2252.80;;;;;;4990807;28;20034;-65
2022/12/02 01:45:05;;;;;;;68.85;38.70;;;128.90;2252.80;;;;;;4990681;28;20130;-63
2022/12/02 01:47:31;;;;;;;83.28;43.53;;;128.80;2252.80;;;;;;4991034;28;20750;-65
2022/12/02 01:49:57;;;;;;;79.07;42.60;;;128.70;2252.80;;;;;;4990814;28;20473;-63
2022/12/02 01:52:23;;;;;;;32.70;20.67;;;128.80;2252.80;;;;;;4990633;28;20524;-59
2022/12/02 01:54:50;;;;;;;29.00;17.83;;;128.90;2252.80;;;;;;4990711;28;20473;-62
2022/12/02 01:57:20;;;;;;;34.78;22.42;;;128.60;2252.80;;;;;;4990226;28;20077;-59
2022/12/02 01:59:46;;;;;;;24.23;16.42;;;128.80;2252.80;;;;;;4990587;28;20049;-62
2022/12/02 02:02:34;;;;;;;28.25;18.02;;;128.80;2252.80;;;;;;4990531;28;20037;-59
2022/12/02 02:05:06;;;;;;;30.63;18.92;;;128.70;2252.80;;;;;;4990568;28;20058;-59
2022/12/02 02:07:34;;;;;;;44.63;26.65;;;128.60;2252.80;;;;;;4990278;28;20504;-59
2022/12/02 02:10:00;;;;;;;29.48;19.80;;;128.80;2252.80;;;;;;4990833;28;20122;-58
2022/12/02 02:12:26;;;;;;;33.65;22.85;;;128.90;2252.80;;;;;;4990184;28;20027;-59
2022/12/02 02:14:53;;;;;;;30.08;20.33;;;128.90;2252.80;;;;;;4990360;28;20026;-59
2022/12/02 02:17:19;;;;;;;33.40;21.20;;;128.80;2252.80;;;;;;4990494;28;20055;-59
2022/12/02 02:19:45;;;;;;;30.00;21.08;;;128.90;2252.80;;;;;;4990410;28;20034;-58
2022/12/02 02:22:20;;;;;;;26.40;18.35;;;128.90;2252.80;;;;;;4992253;28;20507;-59
2022/12/02 02:24:46;;;;;;;37.47;23.92;;;128.70;2252.80;;;;;;4994100;28;20026;-59
2022/12/02 02:27:11;;;;;;;39.97;28.05;;;128.40;2252.80;;;;;;4994495;28;20027;-59
2022/12/02 02:29:37;;;;;;;42.00;29.23;;;128.60;2252.80;;;;;;4994292;28;20098;-60
2022/12/02 02:32:03;;;;;;;28.85;19.27;;;128.70;2252.80;;;;;;4994003;28;20428;-59
2022/12/02 02:34:29;;;;;;;37.05;24.00;;;128.70;2252.80;;;;;;4994088;28;20492;-59
2022/12/02 02:36:55;;;;;;;35.65;22.85;;;128.70;2252.80;;;;;;4993704;28;20400;-59
2022/12/02 02:39:22;;;;;;;37.17;23.10;;;128.70;2252.80;;;;;;4993920;28;20031;-59
2022/12/02 02:41:48;;;;;;;36.63;22.38;;;128.70;2252.80;;;;;;4994089;28;20039;-59
2022/12/02 02:44:15;;;;;;;29.52;20.90;;;128.80;2252.80;;;;;;4993920;28;20025;-63
2022/12/02 02:46:41;;;;;;;27.08;17.92;;;128.90;2252.80;;;;;;4993984;28;20033;-59
2022/12/02 02:49:07;;;;;;;34.20;15.93;;;128.90;2252.80;;;;;;4993862;28;20093;-59
2022/12/02 02:51:33;;;;;;;26.98;15.80;;;128.90;2252.80;;;;;;4993609;28;20038;-59
2022/12/02 02:53:59;;;;;;;32.28;20.67;;;128.60;2252.80;;;;;;4993607;28;20028;-59
2022/12/02 02:56:25;;;;;;;31.25;20.00;;;128.50;2252.80;;;;;;4993499;28;20060;-59
2022/12/02 02:58:51;;;;;;;31.52;18.75;;;128.80;2252.80;;;;;;4993762;28;20377;-59
2022/12/02 03:01:23;;;;;;;29.67;18.70;;;128.80;2252.80;;;;;;4993547;28;20045;-59
2022/12/02 03:03:57;;;;;;;33.45;18.65;;;128.80;2252.80;;;;;;4993628;28;20026;-59
2022/12/02 03:06:25;;;;;;;34.35;19.67;;;128.90;2252.80;;;;;;4993204;28;20034;-59
2022/12/02 03:08:53;;;;;;;29.02;16.30;;;128.80;2252.80;;;;;;4993344;28;20465;-58
2022/12/02 03:11:18;;;;;;;22.63;15.40;;;128.50;2252.80;;;;;;4993488;28;20038;-59
2022/12/02 03:13:47;;;;;;;28.75;17.83;;;128.70;2252.80;;;;;;4993360;28;20026;-59
2022/12/02 03:16:15;;;;;;;39.08;23.08;;;128.60;2252.80;;;;;;4993329;28;20081;-59
2022/12/02 03:18:44;;;;;;;33.85;18.25;;;128.40;2252.80;;;;;;4993498;28;20489;-59
2022/12/02 03:21:12;;;;;;;32.53;18.88;;;128.30;2252.80;;;;;;4993314;28;20469;-59
2022/12/02 03:23:38;;;;;;;41.10;23.52;;;128.30;2252.80;;;;;;4993374;28;20023;-59
2022/12/02 03:26:04;;;;;;;30.70;19.00;;;128.40;2252.80;;;;;;4992966;28;20027;-59
2022/12/02 03:28:31;;;;;;;29.38;19.27;;;128.60;2252.80;;;;;;4993075;28;20027;-63
2022/12/02 03:30:57;;;;;;;28.48;18.95;;;128.80;2252.80;;;;;;4992974;28;20049;-59
2022/12/02 03:33:23;;;;;;;24.20;15.43;;;128.90;2252.80;;;;;;4991949;28;20481;-59
2022/12/02 03:35:49;;;;;;;27.42;15.40;;;128.80;2252.80;;;;;;4992884;28;20026;-59
2022/12/02 03:38:15;;;;;;;21.50;13.38;;;128.80;2252.80;;;;;;4993221;28;20319;-64
2022/12/02 03:40:41;;;;;;;20.70;14.05;;;128.90;2252.80;;;;;;4993046;28;20031;-61
2022/12/02 03:43:06;;;;;;;28.45;16.13;;;153.60;2252.80;;;;;;4992642;28;20059;-59
2022/12/02 03:45:34;;;;;;;26.92;15.18;;;128.90;2252.80;;;;;;4992641;28;20076;-59
2022/12/02 03:48:01;;;;;;;19.65;14.00;;;153.70;2252.80;;;;;;4992802;28;20030;-58
2022/12/02 03:50:27;;;;;;;25.45;14.30;;;128.90;2252.80;;;;;;4992640;28;20030;-59
2022/12/02 03:52:53;;;;;;;24.88;14.93;;;153.60;2252.80;;;;;;4992741;28;20053;-60
2022/12/02 03:55:19;;;;;;;17.73;13.27;;;128.90;2252.80;;;;;;4992517;28;20034;-64
2022/12/02 03:57:45;;;;;;;22.88;14.20;;;128.90;2252.80;;;;;;4992557;28;20060;-59
2022/12/02 04:00:12;;;;;;;30.98;17.88;;;128.90;2252.80;;;;;;4992771;28;20027;-59
2022/12/02 04:02:38;;;;;;;32.03;18.05;;;128.90;2252.80;;;;;;4992572;28;20496;-59
2022/12/02 04:05:04;;;;;;;27.80;16.65;;;128.90;2252.80;;;;;;4992371;28;20050;-59
2022/12/02 04:07:30;;;;;;;30.85;18.55;;;128.90;2252.80;;;;;;4992378;28;20054;-58
2022/12/02 04:09:55;;;;;;;24.98;16.58;;;153.60;2252.80;;;;;;4992355;28;20373;-58
2022/12/02 04:12:21;;;;;;;23.83;15.38;;;153.70;2252.80;;;;;;4992371;28;20033;-58
2022/12/02 04:14:47;;;;;;;30.63;17.92;;;153.60;2252.80;;;;;;4992215;28;20105;-59
2022/12/02 04:17:12;;;;;;;25.42;17.85;;;153.60;2252.80;;;;;;4992259;28;20081;-59
2022/12/02 04:19:38;;;;;;;24.00;14.88;;;128.70;2252.80;;;;;;4992159;28;20037;-58
2022/12/02 04:22:04;;;;;;;26.05;16.80;;;128.70;2252.80;;;;;;4992129;28;20054;-59
2022/12/02 04:24:29;;;;;;;24.73;18.10;;;128.80;2252.80;;;;;;4991902;28;20029;-59
2022/12/02 04:26:55;;;;;;;26.20;17.10;;;128.80;2252.80;;;;;;4991684;28;20034;-59
2022/12/02 04:29:21;;;;;;;22.17;17.85;;;128.90;2252.80;;;;;;4992146;28;20061;-59
2022/12/02 04:31:46;;;;;;;21.88;15.13;;;128.90;2252.80;;;;;;4991867;28;20056;-59
2022/12/02 04:34:12;;;;;;;24.75;15.20;;;128.90;2252.80;;;;;;4991863;28;20358;-59
2022/12/02 04:36:38;;;;;;;27.42;15.80;;;128.90;2252.80;;;;;;4991945;28;20046;-59
2022/12/02 04:39:04;;;;;;;26.85;15.48;;;128.90;2252.80;;;;;;4991748;28;20475;-59
2022/12/02 04:41:30;;;;;;;26.48;16.88;;;128.90;2252.80;;;;;;4991625;28;20400;-59
2022/12/02 04:43:56;;;;;;;26.02;18.00;;;153.60;2252.80;;;;;;4991508;28;20023;-58
2022/12/02 04:46:21;;;;;;;25.23;16.30;;;153.60;2252.80;;;;;;4991581;28;20385;-58
2022/12/02 04:48:47;;;;;;;21.00;15.23;;;128.90;2252.80;;;;;;4992222;28;20031;-63
2022/12/02 04:51:13;;;;;;;23.38;15.02;;;128.80;2252.80;;;;;;4991593;28;20027;-59
2022/12/02 04:53:39;;;;;;;19.70;13.73;;;128.90;2252.80;;;;;;4991809;28;20065;-59
2022/12/02 04:56:04;;;;;;;22.02;15.88;;;128.90;2252.80;;;;;;4991015;28;20440;-58
2022/12/02 04:58:30;;;;;;;24.15;16.40;;;128.90;2252.80;;;;;;4991629;28;20019;-58
2022/12/02 05:00:56;;;;;;;23.00;15.60;;;128.90;2252.80;;;;;;4991208;28;20384;-58
2022/12/02 05:03:22;;;;;;;28.95;16.95;;;128.60;2252.80;;;;;;4991411;28;20066;-59
2022/12/02 05:05:47;;;;;;;26.77;17.23;;;128.50;2252.80;;;;;;4991210;28;20037;-65
2022/12/02 05:08:13;;;;;;;32.00;19.60;;;128.50;2252.80;;;;;;4991311;28;20031;-59
2022/12/02 05:10:39;;;;;;;31.42;20.92;;;128.30;2252.80;;;;;;4991318;28;20030;-59
2022/12/02 05:13:05;;;;;;;33.40;21.55;;;128.20;2252.80;;;;;;4991305;28;20031;-59
2022/12/02 05:15:30;;;;;;;30.95;20.30;;;128.00;2252.80;;;;;;4991215;28;20022;-59
2022/12/02 05:17:56;;;;;;;34.00;24.23;;;128.00;2252.80;;;;;;4991025;28;20054;-58
2022/12/02 05:20:22;;;;;;;35.05;23.80;;;103.30;2227.20;;;;;;4990992;28;20456;-58
2022/12/02 05:22:47;;;;;;;33.95;22.63;;;103.30;2227.20;;;;;;4991377;28;20037;-58
2022/12/02 05:25:13;;;;;;;34.72;23.73;;;128.10;2252.80;;;;;;4990880;28;20388;-60
2022/12/02 05:27:39;;;;;;;36.75;22.45;;;128.40;2252.80;;;;;;4991143;28;20065;-59
2022/12/02 05:30:06;;;;;;;33.03;20.40;;;128.60;2252.80;;;;;;4990836;28;20110;-59
2022/12/02 05:32:32;;;;;;;30.45;21.52;;;128.60;2252.80;;;;;;4990512;28;20030;-59
2022/12/02 05:34:58;;;;;;;38.95;23.70;;;128.70;2252.80;;;;;;4991008;28;20413;-59
2022/12/02 05:37:23;;;;;;;23.50;18.15;;;128.70;2252.80;;;;;;4990559;28;20388;-59
2022/12/02 05:39:49;;;;;;;32.95;21.25;;;128.70;2252.80;;;;;;4991028;28;20400;-65
2022/12/02 05:42:15;;;;;;;29.15;19.52;;;128.80;2252.80;;;;;;4990583;28;20055;-59
2022/12/02 05:44:42;;;;;;;25.25;17.02;;;128.80;2252.80;;;;;;4991107;28;20483;-58
2022/12/02 05:47:13;;;;;;;29.77;20.30;;;128.80;2252.80;;;;;;4980829;28;20067;-59
2022/12/02 05:49:40;;;;;;;28.33;17.75;;;128.80;2252.80;;;;;;4971477;28;20075;-58
2022/12/02 05:52:22;;;;;;;31.05;19.85;;;153.60;2252.80;;;;;;4971342;28;20038;-59
2022/12/02 05:54:52;;;;;;;32.72;20.80;;;153.60;2252.80;;;;;;4971378;28;20038;-59
2022/12/02 05:57:22;;;;;;;39.08;21.10;;;153.70;2252.80;;;;;;4970563;28;20055;-59
2022/12/02 05:59:48;;;;;;;35.72;22.13;;;153.60;2252.80;;;;;;4954350;28;20110;-58
2022/12/02 06:02:31;;;;;;;39.63;25.67;;;128.70;2252.80;;;;;;4971037;28;20478;-56
2022/12/02 06:04:57;;;;;;;38.30;26.27;;;128.60;2252.80;;;;;;4971523;28;20113;-56
2022/12/02 06:07:23;;;;;;;37.67;26.50;;;128.70;2252.80;;;;;;4970917;28;20118;-56
2022/12/02 06:09:51;;;;;;;38.08;24.98;;;128.50;2252.80;;;;;;4971252;28;20026;-56
2022/12/02 06:12:17;;;;;;;43.28;30.38;;;128.50;2252.80;;;;;;4971012;28;20066;-56
2022/12/02 06:14:53;;;;;;;43.70;26.38;;;128.60;2252.80;;;;;;4971008;28;20034;-56
2022/12/02 06:17:20;;;;;;;39.25;25.65;;;128.90;2252.80;;;;;;4971095;28;20086;-56
2022/12/02 06:19:52;;;;;;;41.17;25.70;;;128.80;2252.80;;;;;;4954046;28;20062;-56
2022/12/02 06:22:29;;;;;;;39.50;25.63;;;128.90;2252.80;;;;;;4971051;28;20038;-56
2022/12/02 06:24:56;;;;;;;36.75;25.48;;;128.80;2252.80;;;;;;4970865;28;20810;-56
2022/12/02 06:27:22;;;;;;;35.00;22.88;;;128.80;2252.80;;;;;;4970866;28;20110;-57
2022/12/02 06:30:06;;;;;;;37.15;24.00;;;128.70;2252.80;;;;;;4970870;28;20101;-56
2022/12/02 06:32:41;;;;;;;40.90;24.80;;;128.70;2252.80;;;;;;4970769;28;20031;-56
2022/12/02 06:35:36;;;;;;;35.72;24.35;;;128.50;2252.80;;;;;;4970831;28;20030;-55
2022/12/02 06:38:15;;;;;;;36.00;24.42;;;128.50;2252.80;;;;;;4892386;29;20064;-57
2022/12/02 06:40:40;;;;;;;40.28;26.48;;;128.60;2252.80;;;;;;4892808;29;20067;-57
2022/12/02 06:43:18;;;;;;;39.60;26.80;;;128.80;2252.80;;;;;;4892444;29;20068;-56
2022/12/02 06:45:44;;;;;;;42.60;26.95;;;128.90;2252.80;;;;;;4892384;29;20068;-56
2022/12/02 06:48:18;;;;;;;49.10;29.58;;;153.60;2252.80;;;;;;4892670;29;20503;-56
2022/12/02 06:50:46;;;;;;;45.72;28.58;;;153.70;2252.80;;;;;;4892419;29;20126;-56
2022/12/02 06:53:17;;;;;;;42.75;28.63;;;153.60;2252.80;;;;;;4892334;29;20040;-57
2022/12/02 06:55:43;;;;;;;43.50;28.17;;;153.70;2252.80;;;;;;4892262;29;20057;-57
2022/12/02 06:58:57;;;;;;;41.05;27.73;;;153.70;2252.80;;;;;;4892475;29;20036;-55
2022/12/02 07:01:25;;;;;;;38.30;24.90;;;153.80;2252.80;;;;;;4855036;29;20214;-57
2022/12/02 07:04:00;;;;;;;44.67;28.73;;;153.80;2252.80;;;;;;4855254;29;20080;-56
2022/12/02 07:06:28;;;;;;;43.60;29.27;;;153.80;2252.80;;;;;;4854784;29;20065;-56
2022/12/02 07:08:59;;;;;;;46.67;28.27;;;154.00;2252.80;;;;;;4855909;29;20049;-56
2022/12/02 07:11:52;;;;;;;42.90;31.63;;;154.10;2252.80;;;;;;4858033;29;20041;-56
2022/12/02 07:14:45;;;;;;;47.03;32.88;;;154.00;2252.80;;;;;;4875393;29;20136;-56
2022/12/02 07:17:30;;;;;;;49.75;31.55;;;154.20;2252.80;;;;;;4895707;29;20037;-56
2022/12/02 07:20:21;;;;;;;51.33;31.02;;;154.20;2252.80;;;;;;4895333;29;20048;-56
2022/12/02 07:22:48;;;;;;;49.15;32.85;;;154.10;2252.80;;;;;;4895480;29;20159;-55
2022/12/02 07:25:29;;;;;;;49.63;32.10;;;154.30;2252.80;;;;;;4895358;29;20115;-56
2022/12/02 07:27:55;;;;;;;48.47;31.58;;;154.30;2252.80;;;;;;4895265;29;20137;-56
2022/12/02 07:30:29;;;;;;;54.78;31.98;;;154.50;2252.80;;;;;;4895526;29;20047;-56
2022/12/02 07:32:55;;;;;;;47.20;31.35;;;154.30;2252.80;;;;;;4895052;29;20515;-56
2022/12/02 07:35:21;;;;;;;54.75;36.30;;;154.20;2252.80;;;;;;4924878;29;20544;-56
2022/12/02 07:37:47;;;;;;;50.50;32.25;;;154.20;2252.80;;;;;;4954397;28;20114;-56
2022/12/02 07:40:15;;;;;;;58.42;32.53;;;154.00;2252.80;;;;;;4954337;28;20027;-56
2022/12/02 07:42:42;;;;;;;47.78;31.73;;;154.00;2252.80;;;;;;4954341;28;20045;-55
2022/12/02 07:45:12;;;;;;;48.45;33.47;;;154.00;2252.80;;;;;;4954223;28;20019;-54
2022/12/02 07:47:38;;;;;;;52.38;32.70;;;153.90;2252.80;;;;;;4954116;29;20027;-56
2022/12/02 07:50:05;;;;;;;46.33;32.00;;;154.00;2252.80;;;;;;4953943;28;20024;-56
2022/12/02 07:52:30;;;;;;;44.10;31.15;;;154.10;2252.80;;;;;;4954027;28;20050;-56
2022/12/02 07:54:56;;;;;;;41.65;29.27;;;154.20;2252.80;;;;;;4953801;28;20470;-56
2022/12/02 07:57:22;;;;;;;49.42;32.47;;;154.40;2252.80;;;;;;4971576;28;20097;-56
2022/12/02 07:59:48;;;;;;;46.90;31.70;;;154.40;2252.80;;;;;;4973199;28;20039;-56
2022/12/02 08:02:13;;;;;;;46.55;31.83;;;154.50;2252.80;;;;;;4972793;28;20047;-56
2022/12/02 08:04:40;;;;;;;49.03;30.80;;;179.20;2252.80;;;;;;4973047;28;20030;-55
2022/12/02 08:07:05;;;;;;;45.88;31.35;;;179.20;2252.80;;;;;;4972677;28;20050;-57
2022/12/02 08:09:31;;;;;;;46.88;31.15;;;179.30;2252.80;;;;;;4973133;28;20102;-56
2022/12/02 08:11:57;;;;;;;45.15;30.13;;;179.40;2252.80;;;;;;4972800;28;20485;-56
2022/12/02 08:14:23;;;;;;;41.70;30.50;;;179.40;2252.80;;;;;;4972752;28;20042;-57
2022/12/02 08:16:48;;;;;;;45.28;30.15;;;179.30;2252.80;;;;;;4972799;28;20033;-56
2022/12/02 08:19:14;;;;;;;43.03;30.13;;;179.30;2252.80;;;;;;4972187;28;20482;-56
2022/12/02 08:21:40;;;;;;;44.42;32.35;;;179.30;2252.80;;;;;;4972850;28;20038;-56
2022/12/02 08:24:07;;;;;;;49.45;32.25;;;179.40;2252.80;;;;;;4972673;28;20023;-56
2022/12/02 08:26:33;;;;;;;44.15;30.50;;;179.40;2252.80;;;;;;4972413;28;20389;-57
2022/12/02 08:28:58;;;;;;;40.88;30.13;;;179.30;2252.80;;;;;;4972921;28;20343;-56
2022/12/02 08:31:25;;;;;;;42.30;29.40;;;179.20;2252.80;;;;;;4972308;28;20074;-57
2022/12/02 08:33:51;;;;;;;51.03;34.33;;;179.30;2252.80;;;;;;4972498;28;20034;-56
2022/12/02 08:36:17;;;;;;;47.25;32.22;;;179.40;2252.80;;;;;;4972146;28;20438;-57
2022/12/02 08:38:43;;;;;;;46.65;31.27;;;179.40;2252.80;;;;;;4972404;28;20425;-57
2022/12/02 08:41:09;;;;;;;50.15;35.33;;;179.50;2252.80;;;;;;4972291;28;20035;-56
2022/12/02 08:43:35;;;;;;;60.55;40.25;;;179.70;2252.80;;;;;;4972305;28;20736;-56
2022/12/02 08:46:01;;;;;;;58.13;40.50;;;179.80;2252.80;;;;;;4972268;28;20121;-56
2022/12/02 08:48:27;;;;;;;46.33;34.38;;;179.80;2252.80;;;;;;4970717;28;20058;-56
2022/12/02 08:50:53;;;;;;;53.63;36.13;;;179.80;2252.80;;;;;;4970568;28;20027;-57
2022/12/02 08:53:20;;;;;;;49.85;36.85;;;180.00;2252.80;;;;;;4970827;28;20034;-56
2022/12/02 08:55:46;;;;;;;56.35;40.70;;;180.10;2252.80;;;;;;4970076;28;20409;-55
2022/12/02 08:58:12;;;;;;;60.45;46.50;;;204.80;2252.80;;;;;;4970617;28;20026;-57
2022/12/02 09:00:39;;;;;;;67.75;47.55;;;180.10;2252.80;;;;;;4970356;28;20062;-56
2022/12/02 09:03:06;;;;;;;73.18;51.20;;;204.90;2252.80;;;;;;4969777;28;20034;-56
2022/12/02 09:05:32;;;;;;;65.10;47.00;;;205.00;2252.80;;;;;;4970602;28;20103;-55
2022/12/02 09:07:57;;;;;;;68.60;52.17;;;205.00;2252.80;;;;;;4970458;28;20456;-56
2022/12/02 09:10:23;;;;;;;72.70;51.47;;;180.10;2252.80;;;;;;4970042;28;20027;-57
2022/12/02 09:12:49;;;;;;;69.28;50.17;;;204.90;2252.80;;;;;;4970387;28;20110;-56
2022/12/02 09:15:15;;;;;;;78.55;54.97;;;204.80;2252.80;;;;;;4969678;28;20112;-55
2022/12/02 09:17:40;;;;;;;81.60;56.25;;;204.90;2252.80;;;;;;4970236;28;20100;-56
2022/12/02 09:20:07;;;;;;;65.15;46.40;;;180.10;2252.80;;;;;;4970254;28;20126;-55
2022/12/02 09:22:32;;;;;;;66.50;47.00;;;179.90;2252.80;;;;;;4951887;28;20473;-57
2022/12/02 09:24:58;;;;;;;68.22;50.35;;;180.10;2252.80;;;;;;4970207;28;20062;-55
2022/12/02 09:27:24;;;;;;;60.75;44.80;;;204.80;2252.80;;;;;;4969774;28;20110;-55
2022/12/02 09:29:49;;;;;;;60.70;44.95;;;204.90;2252.80;;;;;;4969996;28;20023;-56
2022/12/02 09:32:15;;;;;;;57.22;38.78;;;205.10;2252.80;;;;;;4969127;28;20370;-56
2022/12/02 09:34:41;;;;;;;64.82;42.30;;;205.40;2252.80;;;;;;4970013;28;20030;-56
2022/12/02 09:37:07;;;;;;;48.78;37.60;;;205.40;2252.80;;;;;;4969741;28;20034;-56
2022/12/02 09:39:32;;;;;;;43.75;32.75;;;205.40;2252.80;;;;;;4969953;28;20088;-56
2022/12/02 09:41:58;;;;;;;47.40;36.08;;;205.10;2252.80;;;;;;4969398;28;20053;-56
2022/12/02 09:44:24;;;;;;;49.40;35.70;;;205.20;2252.80;;;;;;4969816;28;20062;-54
2022/12/02 09:46:50;;;;;;;46.40;32.03;;;205.40;2252.80;;;;;;4969876;28;20038;-55
2022/12/02 09:49:16;;;;;;;48.45;35.92;;;205.30;2252.80;;;;;;4969600;28;20022;-55
2022/12/02 09:51:42;;;;;;;47.50;35.15;;;205.30;2252.80;;;;;;4970027;28;20031;-54
2022/12/02 09:54:14;;;;;;;63.92;44.65;;;205.40;2252.80;;;;;;4969322;28;20050;-54
2022/12/02 09:56:40;;;;;;;64.32;46.90;;;205.40;2252.80;;;;;;4969670;28;20494;-55
2022/12/02 09:59:14;;;;;;;68.15;44.72;;;205.60;2252.80;;;;;;4969600;28;20030;-54
2022/12/02 10:01:41;;;;;;;;;;;205.50;2252.80;;;;;;4970160;28;20117;-56
2022/12/02 10:04:09;;;;;;;67.78;46.80;;;205.20;2252.80;;;;;;4969454;28;19953;-56
2022/12/02 10:06:35;;;;;;;71.93;52.88;;;205.20;2252.80;;;;;;4969484;28;20113;-55
2022/12/02 10:09:01;;;;;;;47.35;35.78;;;205.60;2252.80;;;;;;4969654;28;20054;-55
2022/12/02 10:11:31;;;;;;;49.67;35.50;;;205.40;2252.80;;;;;;4971363;28;20129;-55
2022/12/02 10:13:58;;;;;;;44.25;34.08;;;230.50;2252.80;;;;;;4971154;28;20023;-55
2022/12/02 10:16:26;;;;;;;60.15;40.90;;;230.80;2252.80;;;;;;4970823;28;20093;-55
2022/12/02 10:18:59;;;;;;;59.67;39.45;;;231.00;2252.80;;;;;;4970983;28;20023;-55
2022/12/02 10:21:24;;;;;;;37.15;28.08;;;230.80;2252.80;;;;;;4970751;28;20034;-55
2022/12/02 10:23:59;;;;;;;82.15;51.38;;;230.80;2252.80;;;;;;4971192;28;20030;-57
2022/12/02 10:26:25;;;;;;;44.67;31.75;;;230.70;2252.80;;;;;;4970683;28;20027;-55
2022/12/02 10:29:03;;;;;;;34.72;22.90;;;231.00;2252.80;;;;;;4971011;28;20049;-55
2022/12/02 10:31:29;;;;;;;38.90;26.45;;;230.70;2252.80;;;;;;4971085;28;20026;-55
2022/12/02 10:34:06;;;;;;;38.47;24.08;;;230.60;2252.80;;;;;;4970717;28;20536;-55
2022/12/02 10:36:36;;;;;;;34.67;24.58;;;231.10;2252.80;;;;;;4970698;28;20038;-55
2022/12/02 10:39:20;;;;;;;31.13;22.90;;;231.30;2252.80;;;;;;4970890;28;20363;-55
2022/12/02 10:42:06;;;;;;;29.70;22.58;;;231.10;2252.80;;;;;;4970394;28;20042;-55
2022/12/02 10:44:43;;;;;;;31.75;21.42;;;230.70;2252.80;;;;;;4974567;28;20090;-55
2022/12/02 10:47:24;;;;;;;25.63;18.00;;;230.70;2252.80;;;;;;4974534;28;20038;-55
2022/12/02 10:49:51;;;;;;;38.40;25.55;;;230.70;2252.80;;;;;;4974523;28;20110;-55
2022/12/02 10:52:21;;;;;;;52.20;33.75;;;230.60;2252.80;;;;;;4974226;28;20034;-55
2022/12/02 10:54:50;;;;;;;43.80;27.92;;;230.80;2252.80;;;;;;4974199;28;20031;-55
2022/12/02 10:57:25;;;;;;;31.23;22.58;;;231.20;2252.80;;;;;;4974059;28;20417;-56
2022/12/02 10:59:53;;;;;;;27.20;19.58;;;231.30;2252.80;;;;;;4974352;28;20418;-55
2022/12/02 11:02:32;;;;;;;33.08;22.98;;;231.20;2252.80;;;;;;4974198;28;20042;-55
2022/12/02 11:05:08;;;;;;;24.38;15.85;;;231.10;2252.80;;;;;;4974152;28;20054;-55
2022/12/02 11:07:33;;;;;;;31.80;18.13;;;230.70;2252.80;;;;;;4974028;28;20030;-56
2022/12/02 11:09:59;;;;;;;22.70;16.45;;;230.90;2252.80;;;;;;4974060;28;20070;-55
2022/12/02 11:12:34;;;;;;;37.47;27.52;;;230.80;2252.80;;;;;;4973815;28;20533;-55
2022/12/02 11:15:03;;;;;;;38.00;21.45;;;231.10;2252.80;;;;;;4974003;28;20058;-55
2022/12/02 11:17:49;;;;;;;27.45;17.17;;;230.90;2252.80;;;;;;4973897;28;20470;-54
2022/12/02 11:20:43;;;;;;;60.72;44.28;;;230.90;2252.80;;;;;;4973776;28;20050;-56
2022/12/02 11:23:19;;;;;;;30.88;22.10;;;231.10;2252.80;;;;;;4895339;29;20044;-56
2022/12/02 11:25:47;;;;;;;24.67;16.95;;;231.10;2252.80;;;;;;4895213;29;20035;-56
2022/12/02 11:28:28;;;;;;;25.77;18.05;;;231.20;2252.80;;;;;;4895281;29;20043;-56
2022/12/02 11:31:09;;;;;;;28.58;17.90;;;230.90;2252.80;;;;;;4901104;29;20024;-56
2022/12/02 11:33:54;;;;;;;29.80;21.23;;;230.90;2252.80;;;;;;4913970;29;20127;-56
2022/12/02 11:36:28;;;;;;;27.52;19.35;;;231.00;2252.80;;;;;;4914005;29;20036;-54
2022/12/02 11:38:55;;;;;;;41.80;29.20;;;231.00;2252.80;;;;;;4908575;29;20029;-55
2022/12/02 11:41:46;;;;;;;46.70;33.72;;;231.00;2252.80;;;;;;4905023;29;20048;-55
2022/12/02 11:44:29;;;;;;;37.72;23.20;;;231.20;2252.80;;;;;;4910764;29;20636;-56
2022/12/02 11:46:56;;;;;;;42.63;25.07;;;231.10;2252.80;;;;;;4913831;29;20048;-54
2022/12/02 11:49:27;;;;;;;39.20;25.27;;;231.10;2252.80;;;;;;4914052;29;20043;-55
2022/12/02 11:52:21;;;;;;;33.45;21.20;;;256.20;2252.80;;;;;;4913898;29;20040;-55
2022/12/02 11:55:10;;;;;;;40.80;25.63;;;256.00;2252.80;;;;;;4912747;29;20029;-55
2022/12/02 11:57:51;;;;;;;46.25;29.95;;;231.30;2252.80;;;;;;4907802;29;20621;-55
2022/12/02 12:00:32;;;;;;;42.15;28.65;;;231.00;2252.80;;;;;;4960192;28;20038;-56
2022/12/02 12:03:17;;;;;;;43.83;29.73;;;231.20;2252.80;;;;;;4992610;28;20035;-55
2022/12/02 12:06:11;;;;;;;36.72;23.17;;;230.90;2252.80;;;;;;4992311;28;20026;-55
2022/12/02 12:08:38;;;;;;;41.30;28.27;;;231.20;2252.80;;;;;;4992428;28;20045;-55
2022/12/02 12:11:22;;;;;;;41.45;29.45;;;231.20;2252.80;;;;;;4992255;28;20030;-55